Time;durP1;ratioP1;P1;durP2;ratioP2;P2;SDS_P1;SDS_P2;PMS_P1;PMS_P2;Temp;Humidity;BMP_temperature;BMP_pressure;BME280_temperature;BME280_humidity;BME280_pressure;Samples;Min_cycle;Max_cycle;Signal;HPM_P1;HPM_P2
2021/08/09 00:01:48;;;;;;;0.20;0.20;;;24.30;59.60;;;;;;6242041;28;20358;-70
2021/08/09 00:04:49;;;;;;;1.00;0.32;;;24.30;59.60;;;;;;6242765;28;20389;-70
2021/08/09 00:07:49;;;;;;;0.40;0.30;;;24.30;59.60;;;;;;6242776;28;20472;-70
2021/08/09 00:10:50;;;;;;;0.28;0.20;;;24.30;60.30;;;;;;6242610;28;20025;-70
2021/08/09 00:13:51;;;;;;;0.25;0.25;;;24.30;59.60;;;;;;6235110;28;20128;-70
2021/08/09 00:16:51;;;;;;;0.22;0.20;;;24.30;59.60;;;;;;6236239;28;20079;-70
2021/08/09 00:19:52;;;;;;;0.20;0.20;;;24.30;59.60;;;;;;6242393;28;20033;-70
2021/08/09 00:22:52;;;;;;;0.32;0.32;;;24.30;59.60;;;;;;6242806;28;20064;-70
2021/08/09 00:25:53;;;;;;;0.13;0.13;;;24.30;59.70;;;;;;6242345;28;20029;-71
2021/08/09 00:28:53;;;;;;;0.10;0.10;;;24.30;59.60;;;;;;6242337;28;20033;-70
2021/08/09 00:31:54;;;;;;;0.38;0.25;;;24.30;59.60;;;;;;6242229;28;20034;-70
2021/08/09 00:34:54;;;;;;;0.47;0.30;;;24.30;59.60;;;;;;6242474;28;20025;-70
2021/08/09 00:37:55;;;;;;;0.20;0.13;;;24.30;59.60;;;;;;6242083;28;20025;-70
2021/08/09 00:40:56;;;;;;;0.20;0.20;;;24.30;59.60;;;;;;6242275;28;20022;-70
2021/08/09 00:43:56;;;;;;;0.40;0.28;;;24.30;59.60;;;;;;6242443;28;20052;-70
2021/08/09 00:46:57;;;;;;;0.20;0.20;;;24.30;59.60;;;;;;6242538;28;20420;-70
2021/08/09 00:49:57;;;;;;;1.27;0.43;;;24.30;59.60;;;;;;6241947;28;20488;-70
2021/08/09 00:52:59;;;;;;;0.40;0.40;;;24.30;59.60;;;;;;6241849;28;20080;-70
2021/08/09 00:56:02;;;;;;;0.30;0.20;;;24.30;59.60;;;;;;6242211;28;20549;-70
2021/08/09 00:59:02;;;;;;;0.30;0.30;;;24.30;59.60;;;;;;6242518;28;20057;-70
2021/08/09 01:02:03;;;;;;;0.20;0.20;;;24.30;59.60;;;;;;6241292;28;20691;-70
2021/08/09 01:05:05;;;;;;;0.22;0.20;;;24.30;59.60;;;;;;6242316;28;20025;-70
2021/08/09 01:08:26;;;;;;;0.28;0.25;;;24.30;59.70;;;;;;6241789;28;20094;-70
2021/08/09 01:11:53;;;;;;;0.20;0.20;;;24.30;59.60;;;;;;6242023;28;20120;-70
2021/08/09 01:15:06;;;;;;;0.20;0.20;;;24.30;59.60;;;;;;6229983;28;20219;-70
2021/08/09 01:18:08;;;;;;;0.20;0.20;;;24.30;59.60;;;;;;6239482;28;20021;-70
2021/08/09 01:21:11;;;;;;;0.20;0.20;;;24.30;59.70;;;;;;6246182;28;20030;-71
2021/08/09 01:24:33;;;;;;;0.20;0.20;;;24.30;59.60;;;;;;6246424;28;20427;-71
2021/08/09 01:27:36;;;;;;;0.30;0.30;;;24.30;59.60;;;;;;6244865;28;20056;-70
2021/08/09 01:30:38;;;;;;;0.30;0.20;;;24.30;59.70;;;;;;6246237;28;20037;-71
2021/08/09 01:33:40;;;;;;;0.20;0.20;;;24.30;59.60;;;;;;6245716;28;20153;-70
2021/08/09 01:36:45;;;;;;;0.20;0.20;;;24.30;59.60;;;;;;6246012;28;20034;-70
2021/08/09 01:39:46;;;;;;;0.45;0.30;;;24.30;59.70;;;;;;6245648;28;20025;-71
2021/08/09 01:42:48;;;;;;;0.50;0.30;;;24.30;59.70;;;;;;6245522;28;20369;-70
2021/08/09 01:45:49;;;;;;;0.20;0.20;;;24.30;59.70;;;;;;6245560;28;20040;-70
2021/08/09 01:48:51;;;;;;;0.22;0.22;;;24.30;59.60;;;;;;6244949;28;20079;-70
2021/08/09 01:51:52;;;;;;;0.20;0.20;;;24.30;60.40;;;;;;6245139;28;20032;-70
2021/08/09 01:54:53;;;;;;;0.10;0.10;;;24.30;59.60;;;;;;6245767;28;20480;-71
2021/08/09 01:57:54;;;;;;;0.20;0.20;;;24.30;59.60;;;;;;6245301;28;20049;-70
2021/08/09 02:00:54;;;;;;;0.20;0.20;;;24.30;59.70;;;;;;6245836;28;20048;-70
2021/08/09 02:03:55;;;;;;;0.20;0.20;;;24.30;59.60;;;;;;6244351;28;20366;-71
2021/08/09 02:06:55;;;;;;;0.10;0.10;;;24.30;59.60;;;;;;6245445;28;20459;-71
2021/08/09 02:09:56;;;;;;;0.10;0.10;;;24.30;59.60;;;;;;6244971;28;20422;-70
2021/08/09 02:13:12;;;;;;;0.10;0.10;;;24.30;59.70;;;;;;6244134;28;20033;-70
2021/08/09 02:16:29;;;;;;;0.50;0.30;;;24.30;59.70;;;;;;6220276;28;20121;-70
2021/08/09 02:19:36;;;;;;;0.32;0.30;;;24.30;59.70;;;;;;6238619;28;20025;-70
2021/08/09 02:22:44;;;;;;;0.25;0.20;;;24.30;59.70;;;;;;6244470;28;20021;-70
2021/08/09 02:25:48;;;;;;;0.10;0.10;;;24.30;59.60;;;;;;6244562;28;20025;-70
2021/08/09 02:28:52;;;;;;;0.20;0.20;;;24.30;59.60;;;;;;6244763;28;20021;-70
2021/08/09 02:31:55;;;;;;;0.20;0.20;;;24.30;59.60;;;;;;6244368;28;20041;-70
2021/08/09 02:34:57;;;;;;;0.10;0.10;;;24.30;59.70;;;;;;6244849;28;20033;-71
2021/08/09 02:37:59;;;;;;;0.20;0.20;;;24.30;59.60;;;;;;6244555;28;20380;-70
2021/08/09 02:41:01;;;;;;;0.30;0.28;;;24.30;59.60;;;;;;6244786;28;20021;-70
2021/08/09 02:44:02;;;;;;;0.55;0.20;;;24.30;59.70;;;;;;6244014;28;20435;-71
2021/08/09 02:47:04;;;;;;;0.45;0.20;;;24.30;59.60;;;;;;6245097;28;20025;-70
2021/08/09 02:50:08;;;;;;;0.30;0.30;;;24.30;59.60;;;;;;6244042;28;20451;-70
2021/08/09 02:53:09;;;;;;;0.20;0.20;;;24.30;59.60;;;;;;6243930;28;20025;-71
2021/08/09 02:56:10;;;;;;;0.20;0.20;;;24.30;59.60;;;;;;6243973;28;20076;-70
2021/08/09 02:59:11;;;;;;;0.20;0.20;;;24.30;59.60;;;;;;6243571;28;20029;-70
2021/08/09 03:02:14;;;;;;;0.60;0.20;;;24.30;59.60;;;;;;6244548;28;20187;-71
2021/08/09 03:05:17;;;;;;;0.50;0.32;;;24.30;59.70;;;;;;6243749;28;20029;-70
2021/08/09 03:08:18;;;;;;;0.20;0.20;;;24.30;59.70;;;;;;6244216;28;20079;-70
2021/08/09 03:11:19;;;;;;;0.38;0.20;;;24.30;59.70;;;;;;6242194;28;20118;-70
2021/08/09 03:14:24;;;;;;;0.10;0.10;;;24.30;59.70;;;;;;6238006;28;20029;-71
2021/08/09 03:17:25;;;;;;;0.20;0.20;;;24.30;59.60;;;;;;6243514;28;20017;-70
2021/08/09 03:20:26;;;;;;;0.22;0.20;;;24.30;59.60;;;;;;6244106;28;20029;-70
2021/08/09 03:23:26;;;;;;;0.55;0.30;;;24.30;59.60;;;;;;6243492;28;20018;-70
2021/08/09 03:26:26;;;;;;;0.43;0.20;;;24.30;59.60;;;;;;6243845;28;20114;-71
2021/08/09 03:29:27;;;;;;;0.50;0.30;;;24.30;59.60;;;;;;6244260;28;20055;-70
2021/08/09 03:32:27;;;;;;;0.10;0.10;;;24.30;59.60;;;;;;6243721;28;20037;-71
2021/08/09 03:35:28;;;;;;;0.20;0.20;;;24.30;59.60;;;;;;6242852;28;20105;-71
2021/08/09 03:38:29;;;;;;;0.10;0.10;;;24.30;59.70;;;;;;6244367;28;20101;-70
2021/08/09 03:41:29;;;;;;;0.10;0.10;;;24.30;59.60;;;;;;6243257;28;20495;-70
2021/08/09 03:44:30;;;;;;;0.10;0.10;;;24.30;59.70;;;;;;6242856;28;20037;-70
2021/08/09 03:47:30;;;;;;;0.20;0.15;;;24.30;59.70;;;;;;6243009;28;20041;-70
2021/08/09 03:50:31;;;;;;;0.22;0.20;;;24.30;59.60;;;;;;6243089;28;20092;-70
2021/08/09 03:53:31;;;;;;;0.50;0.22;;;24.30;59.60;;;;;;6242932;28;20045;-70
2021/08/09 03:56:33;;;;;;;0.10;0.10;;;24.30;59.60;;;;;;6243183;28;20060;-70
2021/08/09 04:03:30;;;;;;;;;;;24.30;59.60;;;;;;6243368;28;20467;-70
2021/08/09 04:06:32;;;;;;;0.17;0.15;;;24.30;59.60;;;;;;6242629;28;19932;-70
2021/08/09 04:09:32;;;;;;;0.20;0.20;;;24.30;59.70;;;;;;6243419;28;20362;-70
2021/08/09 04:12:33;;;;;;;0.25;0.22;;;24.30;59.60;;;;;;6242369;28;20087;-70
2021/08/09 04:15:34;;;;;;;0.20;0.20;;;24.30;59.60;;;;;;6227766;28;20068;-71
2021/08/09 04:18:34;;;;;;;0.30;0.30;;;24.30;60.40;;;;;;6242955;28;20033;-71
2021/08/09 04:21:35;;;;;;;0.20;0.20;;;24.30;59.70;;;;;;6242640;28;20029;-70
2021/08/09 04:24:35;;;;;;;0.63;0.30;;;24.30;59.60;;;;;;6242484;28;20086;-70
2021/08/09 04:27:36;;;;;;;0.10;0.10;;;24.30;60.40;;;;;;6242442;28;20036;-71
2021/08/09 04:30:36;;;;;;;0.30;0.30;;;24.30;59.60;;;;;;6241012;28;20450;-70
2021/08/09 04:33:45;;;;;;;0.15;0.13;;;24.30;59.70;;;;;;6242231;28;20029;-70
2021/08/09 04:36:45;;;;;;;0.20;0.20;;;24.30;59.60;;;;;;6242283;28;20022;-71
2021/08/09 04:39:46;;;;;;;0.40;0.20;;;24.30;59.60;;;;;;6241995;28;20041;-71
2021/08/09 04:42:46;;;;;;;0.43;0.20;;;24.30;59.60;;;;;;6241682;28;20393;-70
2021/08/09 04:45:48;;;;;;;0.20;0.20;;;24.30;59.60;;;;;;6242446;28;20044;-70
2021/08/09 04:48:49;;;;;;;0.43;0.20;;;24.30;59.60;;;;;;6246469;28;20057;-71
2021/08/09 04:51:52;;;;;;;0.20;0.20;;;24.30;59.60;;;;;;6247142;28;20033;-71
2021/08/09 04:54:52;;;;;;;0.10;0.10;;;24.30;59.60;;;;;;6247141;28;20120;-70
2021/08/09 04:57:52;;;;;;;0.22;0.20;;;24.30;60.30;;;;;;6246459;28;20057;-70
2021/08/09 05:00:53;;;;;;;0.28;0.20;;;24.30;59.50;;;;;;6244686;28;20025;-70
2021/08/09 05:03:54;;;;;;;0.20;0.20;;;24.30;59.50;;;;;;6246824;28;20379;-71
2021/08/09 05:06:54;;;;;;;0.50;0.20;;;24.30;59.50;;;;;;6246860;28;20025;-70
2021/08/09 05:09:55;;;;;;;0.20;0.20;;;24.30;59.50;;;;;;6246567;28;20033;-70
2021/08/09 05:12:55;;;;;;;0.20;0.20;;;24.30;59.50;;;;;;6245701;28;20033;-70
2021/08/09 05:15:56;;;;;;;0.77;0.30;;;24.30;59.50;;;;;;6221511;28;20080;-71
2021/08/09 05:19:01;;;;;;;0.15;0.15;;;24.30;59.50;;;;;;6245855;28;20462;-70
2021/08/09 05:22:02;;;;;;;4.97;0.77;;;24.30;59.50;;;;;;6246220;28;20086;-71
2021/08/09 05:25:08;;;;;;;1.15;0.55;;;24.30;56.80;;;;;;6245771;28;20504;-71
2021/08/09 05:28:08;;;;;;;3.75;0.50;;;24.30;57.70;;;;;;6245738;28;20144;-70
2021/08/09 05:31:09;;;;;;;3.22;0.40;;;24.30;58.00;;;;;;6245906;28;20030;-70
2021/08/09 05:34:09;;;;;;;2.55;0.60;;;24.30;58.00;;;;;;6245855;28;20022;-70
2021/08/09 05:37:10;;;;;;;0.60;0.30;;;24.30;58.10;;;;;;6245372;28;20103;-70
2021/08/09 05:40:11;;;;;;;0.30;0.30;;;24.30;58.20;;;;;;6245687;28;20045;-71
2021/08/09 05:43:11;;;;;;;0.90;0.40;;;24.30;58.30;;;;;;6245355;28;20022;-70
2021/08/09 05:46:12;;;;;;;0.90;0.28;;;24.30;58.40;;;;;;6245588;28;20128;-70
2021/08/09 05:49:13;;;;;;;1.42;0.50;;;24.30;58.50;;;;;;6244239;28;20116;-70
2021/08/09 05:52:24;;;;;;;0.63;0.30;;;24.30;58.50;;;;;;6245036;28;20033;-70
2021/08/09 05:55:26;;;;;;;0.40;0.38;;;24.30;58.50;;;;;;6245465;28;20029;-70
2021/08/09 05:58:26;;;;;;;0.50;0.40;;;24.30;58.60;;;;;;6244459;28;20048;-70
2021/08/09 06:01:27;;;;;;;1.88;0.50;;;24.30;58.60;;;;;;6236650;28;20030;-70
2021/08/09 06:04:27;;;;;;;1.00;0.40;;;24.30;58.60;;;;;;6244676;28;20492;-70
2021/08/09 06:07:28;;;;;;;0.70;0.35;;;24.30;58.70;;;;;;6247355;28;20033;-70
2021/08/09 06:10:28;;;;;;;1.10;0.57;;;24.30;58.70;;;;;;6247402;28;20108;-71
2021/08/09 06:13:29;;;;;;;0.98;0.40;;;24.30;58.60;;;;;;6242207;28;20451;-70
2021/08/09 06:16:29;;;;;;;1.13;0.50;;;24.30;58.70;;;;;;6244851;28;20017;-71
2021/08/09 06:19:30;;;;;;;1.02;0.40;;;24.30;58.70;;;;;;6246543;28;20472;-71
2021/08/09 06:22:31;;;;;;;1.75;0.60;;;24.30;58.70;;;;;;6246742;28;20100;-70
2021/08/09 06:25:31;;;;;;;0.65;0.40;;;24.30;58.80;;;;;;6247262;28;20026;-71
2021/08/09 06:28:34;;;;;;;0.52;0.30;;;24.30;58.70;;;;;;6246760;28;20026;-71
2021/08/09 06:31:35;;;;;;;0.73;0.60;;;24.30;58.70;;;;;;6246847;28;20124;-70
2021/08/09 06:34:36;;;;;;;0.77;0.30;;;24.30;58.70;;;;;;6246517;28;20040;-71
2021/08/09 06:37:36;;;;;;;2.83;0.47;;;24.30;58.80;;;;;;6246678;28;20037;-70
2021/08/09 06:40:43;;;;;;;0.28;0.28;;;24.30;58.70;;;;;;6247001;28;20030;-70
2021/08/09 06:43:43;;;;;;;0.50;0.30;;;24.30;58.80;;;;;;6246644;28;20029;-70
2021/08/09 06:46:44;;;;;;;0.60;0.40;;;24.30;58.70;;;;;;6246897;28;20091;-70
2021/08/09 06:49:44;;;;;;;1.13;0.43;;;24.30;58.70;;;;;;6245736;28;20029;-70
2021/08/09 06:52:45;;;;;;;0.52;0.20;;;24.30;58.70;;;;;;6246334;28;20109;-70
2021/08/09 06:55:45;;;;;;;0.25;0.25;;;24.30;58.80;;;;;;6245689;28;20046;-70
2021/08/09 06:58:46;;;;;;;1.08;0.38;;;24.30;58.80;;;;;;6246175;28;20030;-71
2021/08/09 07:01:47;;;;;;;0.52;0.40;;;24.30;58.80;;;;;;6245660;28;20021;-70
2021/08/09 07:04:47;;;;;;;0.20;0.20;;;24.30;58.70;;;;;;6245980;28;20017;-71
2021/08/09 07:07:51;;;;;;;0.43;0.30;;;24.30;58.70;;;;;;6246153;28;20056;-70
2021/08/09 07:10:52;;;;;;;1.02;0.40;;;24.30;58.80;;;;;;6244800;28;20079;-70
2021/08/09 07:13:53;;;;;;;1.60;0.50;;;24.30;58.70;;;;;;6242281;28;20021;-71
2021/08/09 07:16:55;;;;;;;0.77;0.30;;;24.30;58.80;;;;;;6245709;28;20141;-70
2021/08/09 07:19:55;;;;;;;0.75;0.40;;;24.30;58.80;;;;;;6245265;28;20075;-71
2021/08/09 07:22:56;;;;;;;0.45;0.40;;;24.30;58.80;;;;;;6245752;28;20021;-70
2021/08/09 07:25:57;;;;;;;0.57;0.40;;;24.30;58.80;;;;;;6245431;28;20090;-70
2021/08/09 07:28:59;;;;;;;0.85;0.50;;;24.30;58.80;;;;;;6245552;28;20484;-71
2021/08/09 07:31:59;;;;;;;0.65;0.40;;;24.30;58.70;;;;;;6245298;28;20120;-70
2021/08/09 07:35:00;;;;;;;0.28;0.25;;;24.30;58.70;;;;;;6245629;28;20029;-70
2021/08/09 07:38:00;;;;;;;0.50;0.40;;;24.30;58.80;;;;;;6245422;28;20032;-70
2021/08/09 07:41:01;;;;;;;0.52;0.35;;;24.30;58.70;;;;;;6244982;28;20097;-70
2021/08/09 07:44:02;;;;;;;0.45;0.40;;;24.30;58.70;;;;;;6244568;28;20033;-70
2021/08/09 07:47:02;;;;;;;0.35;0.30;;;24.30;58.70;;;;;;6245150;28;20473;-70
2021/08/09 07:50:03;;;;;;;0.65;0.32;;;24.30;58.80;;;;;;6244794;28;20025;-71
2021/08/09 07:53:04;;;;;;;0.57;0.28;;;24.30;58.70;;;;;;6245108;28;20077;-71
2021/08/09 07:56:05;;;;;;;0.50;0.40;;;24.30;58.70;;;;;;6244322;28;20037;-71
2021/08/09 07:59:05;;;;;;;0.57;0.50;;;24.30;58.80;;;;;;6244834;28;20097;-70
2021/08/09 08:02:06;;;;;;;0.60;0.30;;;24.30;58.70;;;;;;6244614;28;20034;-70
2021/08/09 08:05:07;;;;;;;0.35;0.30;;;24.30;58.70;;;;;;6244751;28;20041;-70
2021/08/09 08:08:10;;;;;;;0.65;0.30;;;24.30;58.80;;;;;;6245013;28;20068;-71
2021/08/09 08:11:10;;;;;;;0.43;0.40;;;24.30;58.80;;;;;;6244132;28;20033;-70
2021/08/09 08:14:11;;;;;;;0.38;0.32;;;24.30;58.80;;;;;;6233937;28;20607;-70
2021/08/09 08:17:11;;;;;;;1.42;0.40;;;24.30;58.70;;;;;;6240380;28;20025;-70
2021/08/09 08:20:12;;;;;;;0.32;0.22;;;24.30;58.80;;;;;;6244530;28;20029;-70
2021/08/09 08:23:13;;;;;;;0.20;0.20;;;24.30;58.70;;;;;;6248572;28;20018;-70
2021/08/09 08:26:14;;;;;;;0.70;0.40;;;24.30;58.70;;;;;;6249343;28;20136;-70
2021/08/09 08:29:14;;;;;;;0.50;0.25;;;24.30;58.70;;;;;;6249983;28;20022;-70
2021/08/09 08:32:15;;;;;;;0.45;0.30;;;24.30;58.80;;;;;;6249401;28;20040;-70
2021/08/09 08:35:15;;;;;;;0.73;0.30;;;24.30;58.70;;;;;;6249418;28;20022;-71
2021/08/09 08:38:16;;;;;;;0.30;0.30;;;24.30;58.70;;;;;;6249184;28;20033;-70
2021/08/09 08:41:17;;;;;;;0.30;0.25;;;24.30;58.70;;;;;;6249140;28;20033;-70
2021/08/09 08:44:19;;;;;;;0.60;0.40;;;24.30;58.60;;;;;;6249373;28;20048;-70
2021/08/09 08:47:21;;;;;;;0.30;0.30;;;24.30;58.50;;;;;;6249119;28;20092;-71
2021/08/09 08:50:22;;;;;;;0.60;0.30;;;24.30;58.60;;;;;;6249224;28;20511;-70
2021/08/09 08:53:25;;;;;;;0.50;0.30;;;24.30;58.50;;;;;;6248983;28;20045;-70
2021/08/09 08:56:26;;;;;;;0.35;0.30;;;24.30;58.60;;;;;;6248484;28;20041;-71
2021/08/09 08:59:26;;;;;;;0.95;0.40;;;24.30;58.50;;;;;;6249126;28;20029;-71
2021/08/09 09:02:32;;;;;;;0.20;0.20;;;24.30;58.60;;;;;;6248540;28;20033;-71
2021/08/09 09:05:33;;;;;;;0.47;0.30;;;24.30;58.60;;;;;;6248764;28;20029;-70
2021/08/09 09:08:45;;;;;;;0.40;0.22;;;24.30;58.60;;;;;;6248393;28;20026;-70
2021/08/09 09:11:45;;;;;;;0.80;0.50;;;24.30;58.60;;;;;;6248486;28;20033;-70
2021/08/09 09:15:01;;;;;;;1.52;0.30;;;24.30;58.70;;;;;;6233045;28;20037;-70
2021/08/09 09:18:02;;;;;;;1.08;0.30;;;24.30;59.40;;;;;;6240141;28;20056;-70
2021/08/09 09:21:04;;;;;;;0.40;0.40;;;24.30;58.80;;;;;;6248299;28;20027;-71
2021/08/09 09:24:14;;;;;;;0.55;0.45;;;24.30;58.80;;;;;;6248154;28;20029;-71
2021/08/09 09:27:32;;;;;;;0.30;0.30;;;24.30;58.80;;;;;;6247882;28;20119;-70
2021/08/09 09:30:33;;;;;;;0.40;0.40;;;24.30;58.80;;;;;;6248256;28;20034;-71
2021/08/09 09:33:33;;;;;;;0.30;0.30;;;24.30;58.80;;;;;;6246830;28;20041;-70
2021/08/09 09:36:46;;;;;;;0.65;0.40;;;24.30;58.80;;;;;;6248276;28;20100;-70
2021/08/09 09:39:46;;;;;;;0.75;0.40;;;24.30;58.80;;;;;;6247951;28;20481;-70
2021/08/09 09:42:48;;;;;;;0.30;0.30;;;24.30;58.90;;;;;;6247058;28;20075;-71
2021/08/09 09:45:51;;;;;;;0.40;0.30;;;24.30;58.80;;;;;;6248508;28;20052;-71
2021/08/09 09:48:56;;;;;;;1.05;0.43;;;24.30;58.90;;;;;;6247116;28;20025;-70
2021/08/09 09:51:57;;;;;;;0.90;0.43;;;24.30;58.80;;;;;;6247181;28;20033;-70
2021/08/09 09:55:00;;;;;;;0.95;0.35;;;24.30;58.80;;;;;;6246853;28;20485;-70
2021/08/09 09:58:00;;;;;;;0.32;0.30;;;24.30;58.80;;;;;;6247361;28;20038;-70
2021/08/09 10:01:01;;;;;;;0.50;0.40;;;24.30;58.80;;;;;;6246175;28;20499;-71
2021/08/09 10:04:03;;;;;;;0.63;0.50;;;24.30;58.90;;;;;;6247453;28;20057;-71
2021/08/09 10:07:04;;;;;;;0.50;0.20;;;24.30;58.90;;;;;;6247250;28;20512;-70
2021/08/09 10:10:06;;;;;;;0.70;0.30;;;24.30;58.80;;;;;;6247749;28;20033;-70
2021/08/09 10:13:09;;;;;;;0.70;0.40;;;24.30;58.80;;;;;;6245643;28;20048;-70
2021/08/09 10:16:13;;;;;;;0.40;0.30;;;24.30;58.80;;;;;;6222832;28;20057;-70
2021/08/09 10:19:14;;;;;;;0.60;0.47;;;24.30;58.80;;;;;;6239523;28;20025;-71
2021/08/09 10:22:18;;;;;;;0.80;0.40;;;24.30;58.80;;;;;;6246765;28;20056;-70
2021/08/09 10:25:42;;;;;;;0.95;0.40;;;24.30;58.80;;;;;;6247535;28;20515;-70
2021/08/09 10:28:51;;;;;;;0.98;0.50;;;24.30;58.80;;;;;;6246525;28;20021;-70
2021/08/09 10:31:52;;;;;;;0.55;0.43;;;24.30;58.80;;;;;;6245181;28;20397;-70
2021/08/09 10:34:53;;;;;;;0.32;0.30;;;24.30;58.80;;;;;;6246835;28;20022;-70
2021/08/09 10:38:17;;;;;;;0.45;0.45;;;24.30;58.80;;;;;;6246243;28;20104;-70
2021/08/09 10:41:29;;;;;;;0.50;0.35;;;24.30;58.80;;;;;;6246909;28;20489;-70
2021/08/09 10:44:29;;;;;;;1.58;0.52;;;24.30;58.80;;;;;;6246283;28;20484;-69
2021/08/09 10:47:45;;;;;;;0.95;0.47;;;24.30;58.80;;;;;;6246386;28;20033;-70
2021/08/09 10:50:47;;;;;;;0.52;0.40;;;24.30;58.80;;;;;;6246731;28;20018;-70
2021/08/09 10:53:48;;;;;;;0.70;0.40;;;24.30;58.80;;;;;;6246503;28;20168;-70
2021/08/09 10:56:48;;;;;;;0.30;0.30;;;24.30;58.80;;;;;;6246367;28;20061;-70
2021/08/09 10:59:49;;;;;;;0.50;0.38;;;24.30;58.80;;;;;;6246434;28;20052;-71
2021/08/09 11:03:06;;;;;;;0.60;0.40;;;24.30;58.80;;;;;;6246856;28;20075;-70
2021/08/09 11:06:51;;;;;;;0.80;0.40;;;24.30;58.80;;;;;;6222177;28;20105;-70
2021/08/09 11:09:51;;;;;;;0.70;0.40;;;24.30;58.80;;;;;;6232625;28;20057;-70
2021/08/09 11:13:01;;;;;;;0.50;0.30;;;24.30;58.80;;;;;;6247213;28;20065;-71
2021/08/09 11:16:04;;;;;;;1.20;0.30;;;24.30;58.80;;;;;;6241755;28;20044;-71
2021/08/09 11:19:05;;;;;;;0.60;0.40;;;24.30;58.80;;;;;;6246666;28;20037;-70
2021/08/09 11:22:06;;;;;;;0.60;0.40;;;24.30;58.80;;;;;;6246956;28;20053;-70
2021/08/09 11:25:38;;;;;;;0.63;0.32;;;24.30;58.80;;;;;;6246790;28;20028;-70
2021/08/09 11:28:39;;;;;;;0.38;0.30;;;24.30;58.80;;;;;;6245841;28;20487;-70
2021/08/09 11:31:47;;;;;;;0.35;0.30;;;24.30;58.90;;;;;;6245751;28;20057;-70
2021/08/09 11:35:00;;;;;;;1.05;0.38;;;24.30;58.80;;;;;;6245026;28;20029;-70
2021/08/09 11:38:01;;;;;;;0.30;0.30;;;24.30;58.80;;;;;;6245475;28;20416;-70
2021/08/09 11:41:05;;;;;;;0.52;0.30;;;24.30;58.80;;;;;;6245281;28;20511;-71
2021/08/09 11:44:08;;;;;;;0.40;0.30;;;24.30;58.90;;;;;;6245061;28;20030;-71
2021/08/09 11:47:08;;;;;;;0.35;0.28;;;24.30;58.80;;;;;;6245018;28;20033;-70
2021/08/09 11:50:09;;;;;;;0.30;0.30;;;24.30;58.80;;;;;;6244987;28;20028;-70
2021/08/09 11:53:10;;;;;;;0.38;0.30;;;24.30;58.80;;;;;;6245019;28;20060;-70
2021/08/09 11:56:19;;;;;;;0.30;0.30;;;24.30;58.80;;;;;;6243969;28;20160;-71
2021/08/09 11:59:20;;;;;;;0.30;0.30;;;24.30;58.80;;;;;;6244955;28;20550;-70
2021/08/09 12:02:21;;;;;;;0.20;0.20;;;24.30;58.90;;;;;;6244765;28;20017;-70
2021/08/09 12:05:24;;;;;;;0.40;0.32;;;24.30;58.80;;;;;;6244901;28;20021;-70
2021/08/09 12:08:25;;;;;;;0.25;0.20;;;24.30;58.80;;;;;;6244978;28;20021;-70
2021/08/09 12:11:31;;;;;;;0.32;0.20;;;24.30;58.80;;;;;;6244859;28;20025;-70
2021/08/09 12:14:32;;;;;;;0.50;0.30;;;24.30;58.80;;;;;;6231072;28;20485;-71
2021/08/09 12:17:33;;;;;;;0.32;0.22;;;24.30;58.80;;;;;;6242062;28;20036;-70
2021/08/09 12:20:35;;;;;;;0.70;0.40;;;24.30;58.80;;;;;;6244624;28;20033;-70
2021/08/09 12:23:55;;;;;;;0.55;0.40;;;24.30;58.80;;;;;;6244770;28;20289;-70
2021/08/09 12:27:20;;;;;;;0.32;0.28;;;24.30;58.80;;;;;;6244376;28;20547;-71
2021/08/09 12:30:21;;;;;;;0.30;0.30;;;24.30;58.80;;;;;;6245187;28;20021;-71
2021/08/09 12:33:22;;;;;;;0.40;0.40;;;24.30;58.80;;;;;;6244298;28;20048;-70
2021/08/09 12:36:22;;;;;;;0.30;0.30;;;24.30;58.90;;;;;;6244716;28;20029;-71
2021/08/09 12:39:31;;;;;;;0.20;0.20;;;24.30;58.90;;;;;;6244511;28;20057;-71
2021/08/09 12:42:32;;;;;;;0.73;0.43;;;24.30;58.80;;;;;;6244205;28;20030;-70
2021/08/09 12:45:32;;;;;;;0.35;0.30;;;24.30;58.90;;;;;;6244588;28;20491;-70
2021/08/09 12:48:33;;;;;;;0.57;0.30;;;24.30;58.90;;;;;;6244526;28;20110;-70
2021/08/09 12:51:33;;;;;;;0.50;0.20;;;24.30;58.90;;;;;;6244446;28;20025;-71
2021/08/09 12:54:34;;;;;;;0.55;0.43;;;24.30;58.90;;;;;;6243084;28;20028;-70
2021/08/09 12:57:36;;;;;;;0.57;0.40;;;24.30;58.90;;;;;;6244180;28;20041;-70
2021/08/09 13:00:37;;;;;;;0.63;0.40;;;24.30;58.90;;;;;;6244458;28;20021;-70
2021/08/09 13:03:37;;;;;;;0.50;0.45;;;24.30;59.50;;;;;;6243747;28;20049;-70
2021/08/09 13:06:38;;;;;;;0.22;0.20;;;24.30;58.90;;;;;;6243870;28;20057;-70
2021/08/09 13:09:39;;;;;;;0.47;0.30;;;24.30;59.50;;;;;;6247037;28;20030;-71
2021/08/09 13:12:39;;;;;;;0.55;0.30;;;24.30;58.90;;;;;;6248501;28;20408;-71
2021/08/09 13:15:41;;;;;;;0.20;0.20;;;24.30;58.80;;;;;;6226009;28;20026;-70
2021/08/09 13:18:41;;;;;;;0.25;0.20;;;24.30;58.90;;;;;;6243581;28;20501;-71
2021/08/09 13:21:41;;;;;;;0.30;0.28;;;24.30;58.90;;;;;;6248434;28;20032;-70
2021/08/09 13:24:42;;;;;;;0.30;0.30;;;24.30;58.80;;;;;;6248322;28;20091;-70
2021/08/09 13:27:43;;;;;;;0.70;0.35;;;24.30;58.90;;;;;;6248167;28;20092;-70
2021/08/09 13:30:44;;;;;;;0.20;0.20;;;24.30;58.80;;;;;;6248190;28;20091;-70
2021/08/09 13:33:48;;;;;;;0.55;0.40;;;24.30;58.80;;;;;;6248124;28;20472;-70
2021/08/09 13:36:49;;;;;;;0.33;0.23;;;24.30;58.80;;;;;;6248107;28;20498;-70
2021/08/09 13:39:49;;;;;;;0.40;0.30;;;24.30;58.90;;;;;;6247978;28;20033;-70
2021/08/09 13:42:55;;;;;;;0.30;0.30;;;24.30;58.90;;;;;;6247611;28;20028;-71
2021/08/09 13:45:56;;;;;;;0.20;0.20;;;24.30;58.90;;;;;;6247807;28;20029;-70
2021/08/09 13:48:56;;;;;;;0.38;0.30;;;24.30;58.90;;;;;;6247514;28;20026;-70
2021/08/09 13:51:57;;;;;;;0.65;0.40;;;24.30;58.80;;;;;;6247524;28;20381;-70
2021/08/09 13:54:58;;;;;;;0.30;0.30;;;24.30;58.90;;;;;;6247812;28;20124;-71
2021/08/09 13:57:58;;;;;;;0.20;0.20;;;24.30;58.80;;;;;;6247260;28;20412;-70
2021/08/09 14:00:59;;;;;;;0.40;0.40;;;24.30;58.90;;;;;;6247400;28;20123;-70
2021/08/09 14:04:01;;;;;;;0.40;0.38;;;24.30;58.90;;;;;;6247262;28;20079;-71
2021/08/09 14:07:01;;;;;;;0.28;0.25;;;24.30;58.90;;;;;;6245932;28;20413;-70
2021/08/09 14:10:04;;;;;;;0.32;0.30;;;24.30;58.90;;;;;;6246730;28;20026;-71
2021/08/09 14:13:05;;;;;;;0.70;0.30;;;24.30;58.90;;;;;;6246736;28;20052;-71
2021/08/09 14:16:06;;;;;;;0.50;0.45;;;24.30;58.80;;;;;;6246897;28;20113;-71
2021/08/09 14:19:06;;;;;;;0.57;0.30;;;24.30;58.90;;;;;;6246530;28;20025;-71
2021/08/09 14:22:07;;;;;;;0.40;0.30;;;24.30;58.80;;;;;;6247083;28;20029;-70
2021/08/09 14:25:08;;;;;;;0.52;0.30;;;24.30;58.90;;;;;;6246867;28;20033;-71
2021/08/09 14:28:09;;;;;;;0.38;0.38;;;24.30;58.80;;;;;;6245249;28;20025;-71
2021/08/09 14:31:09;;;;;;;0.35;0.30;;;24.30;58.80;;;;;;6246827;28;20064;-71
2021/08/09 14:34:10;;;;;;;5.05;0.60;;;24.30;58.80;;;;;;6246090;28;20025;-71
2021/08/09 14:37:10;;;;;;;0.50;0.50;;;24.30;59.10;;;;;;6246807;28;20052;-71
2021/08/09 14:40:11;;;;;;;0.45;0.28;;;24.30;58.80;;;;;;6246896;28;20036;-70
2021/08/09 14:43:12;;;;;;;0.47;0.35;;;24.40;58.90;;;;;;6246713;28;20025;-70
2021/08/09 14:46:12;;;;;;;0.75;0.30;;;24.30;58.90;;;;;;6246350;28;20049;-70
2021/08/09 14:49:13;;;;;;;0.30;0.22;;;24.30;58.90;;;;;;6246663;28;20041;-70
2021/08/09 14:52:13;;;;;;;0.55;0.38;;;24.40;59.00;;;;;;6245813;28;20037;-70
2021/08/09 14:55:14;;;;;;;0.73;0.40;;;24.30;58.90;;;;;;6246389;28;20039;-70
2021/08/09 14:58:14;;;;;;;1.65;0.68;;;24.30;58.80;;;;;;6246022;28;20064;-70
2021/08/09 15:01:15;;;;;;;1.50;0.50;;;24.30;58.80;;;;;;6246145;28;20025;-70
2021/08/09 15:04:21;;;;;;;4.38;0.60;;;24.30;58.80;;;;;;6245455;28;20026;-70
2021/08/09 15:07:21;;;;;;;0.45;0.45;;;24.30;58.80;;;;;;6244665;28;20026;-70
2021/08/09 15:10:22;;;;;;;1.10;0.50;;;24.30;58.80;;;;;;6245760;28;20481;-70
2021/08/09 15:13:22;;;;;;;1.20;0.60;;;24.30;58.80;;;;;;6241729;28;20041;-70
2021/08/09 15:16:23;;;;;;;2.05;0.60;;;24.30;58.90;;;;;;6244081;28;20036;-70
2021/08/09 15:19:23;;;;;;;0.68;0.45;;;24.30;58.80;;;;;;6246011;28;20090;-70
2021/08/09 15:22:24;;;;;;;0.70;0.60;;;24.30;58.80;;;;;;6245469;28;20354;-70
2021/08/09 15:25:24;;;;;;;1.05;0.60;;;24.30;58.80;;;;;;6245544;28;20384;-71
2021/08/09 15:28:25;;;;;;;1.00;0.63;;;24.30;58.90;;;;;;6245388;28;20045;-70
2021/08/09 15:31:27;;;;;;;0.45;0.40;;;24.30;58.80;;;;;;6244608;28;20029;-70
2021/08/09 15:34:27;;;;;;;1.38;0.68;;;24.30;58.80;;;;;;6245033;28;20370;-70
2021/08/09 15:37:29;;;;;;;0.45;0.45;;;24.30;58.90;;;;;;6245615;28;20074;-70
2021/08/09 15:40:29;;;;;;;0.60;0.40;;;24.30;58.80;;;;;;6245282;28;20029;-71
2021/08/09 15:43:30;;;;;;;0.75;0.40;;;24.30;58.90;;;;;;6245462;28;20025;-70
2021/08/09 15:46:30;;;;;;;1.10;0.60;;;24.30;58.90;;;;;;6245508;28;20071;-70
2021/08/09 15:49:31;;;;;;;1.63;0.55;;;24.30;58.80;;;;;;6245015;28;20025;-70
2021/08/09 15:52:32;;;;;;;1.60;0.50;;;24.30;58.80;;;;;;6244549;28;20052;-71
2021/08/09 15:55:32;;;;;;;1.10;0.60;;;24.30;58.90;;;;;;6244791;28;20025;-70